createdAt,value
2023-05-08T00:00:04.490Z,942.82
2023-05-08T00:05:03.437Z,943.10
2023-05-08T00:10:04.590Z,943.31
2023-05-08T00:15:03.386Z,943.51
2023-05-08T00:20:04.461Z,943.47
2023-05-08T00:25:03.439Z,943.47
2023-05-08T00:30:04.764Z,943.66
2023-05-08T00:35:03.381Z,943.84
2023-05-08T00:40:04.545Z,943.92
2023-05-08T00:45:03.157Z,944.27
2023-05-08T00:50:04.472Z,944.53
2023-05-08T00:55:03.420Z,944.70
2023-05-08T01:00:10.559Z,944.65
2023-05-08T01:05:03.313Z,944.80
2023-05-08T01:10:05.511Z,944.59
2023-05-08T01:15:03.197Z,944.59
2023-05-08T01:20:07.199Z,944.67
2023-05-08T01:25:03.371Z,944.74
2023-05-08T01:30:04.695Z,944.61
2023-05-08T01:35:03.364Z,944.61
2023-05-08T01:40:04.738Z,944.72
2023-05-08T01:45:03.690Z,944.67
2023-05-08T01:50:04.532Z,944.59
2023-05-08T01:55:03.304Z,944.80
2023-05-08T02:00:04.555Z,944.92
2023-05-08T02:05:03.504Z,944.86
2023-05-08T02:10:04.764Z,944.74
2023-05-08T02:15:03.437Z,944.84
2023-05-08T02:20:04.421Z,944.80
2023-05-08T02:25:03.385Z,944.76
2023-05-08T02:30:04.390Z,944.76
2023-05-08T02:35:03.867Z,944.74
2023-05-08T02:40:09.084Z,944.70
2023-05-08T02:45:03.302Z,944.76
2023-05-08T02:50:04.346Z,944.67
2023-05-08T02:55:03.281Z,944.68
2023-05-08T03:00:09.563Z,944.68
2023-05-08T03:05:03.307Z,944.70
2023-05-08T03:10:04.446Z,944.70
2023-05-08T03:15:03.220Z,944.76
2023-05-08T03:20:04.421Z,944.78
2023-05-08T03:25:03.258Z,944.70
2023-05-08T03:30:04.449Z,944.76
2023-05-08T03:35:03.104Z,944.78
2023-05-08T03:40:04.482Z,944.74
2023-05-08T03:45:03.163Z,944.70
2023-05-08T03:50:04.282Z,944.65
2023-05-08T03:55:03.312Z,944.59
2023-05-08T04:00:04.396Z,944.55
2023-05-08T04:05:03.432Z,944.51
2023-05-08T04:10:05.011Z,944.55
2023-05-08T04:15:03.181Z,944.55
2023-05-08T04:20:04.311Z,944.45
2023-05-08T04:25:03.275Z,944.39
2023-05-08T04:30:04.528Z,944.33
2023-05-08T04:35:04.439Z,944.37
2023-05-08T04:40:04.575Z,944.31
2023-05-08T04:45:03.386Z,944.21
2023-05-08T04:50:04.501Z,944.17
2023-05-08T04:55:03.198Z,944.15
2023-05-08T05:00:04.340Z,944.17
2023-05-08T05:05:03.446Z,944.12
2023-05-08T05:10:04.476Z,944.15
2023-05-08T05:15:03.201Z,944.15
2023-05-08T05:20:04.227Z,944.10
2023-05-08T05:25:03.230Z,944.02
2023-05-08T05:30:04.359Z,943.98
2023-05-08T05:35:03.282Z,944.00
2023-05-08T05:40:04.412Z,943.96
2023-05-08T05:45:03.214Z,943.94
2023-05-08T05:50:04.349Z,943.84
2023-05-08T05:55:03.268Z,943.92
2023-05-08T06:00:04.423Z,943.88
2023-05-08T06:05:03.354Z,943.84
2023-05-08T06:10:04.503Z,943.82
2023-05-08T06:15:03.301Z,943.82
2023-05-08T06:20:04.216Z,943.82
2023-05-08T06:25:03.250Z,943.90
2023-05-08T06:30:04.375Z,943.86
2023-05-08T06:35:03.288Z,943.82
2023-05-08T06:40:11.908Z,943.80
2023-05-08T06:45:03.203Z,943.90
2023-05-08T06:50:04.262Z,943.88
2023-05-08T06:55:03.273Z,943.88
2023-05-08T07:00:04.387Z,943.80
2023-05-08T07:05:03.545Z,943.80
2023-05-08T07:10:05.494Z,943.80
2023-05-08T07:15:40.904Z,943.84
2023-05-08T07:20:04.355Z,943.78
2023-05-08T07:25:03.212Z,943.80
2023-05-08T07:30:04.493Z,943.82
2023-05-08T07:35:03.363Z,943.84
2023-05-08T07:40:04.336Z,943.88
2023-05-08T07:45:03.201Z,943.84
2023-05-08T07:50:04.401Z,943.84
2023-05-08T07:55:03.207Z,943.84
2023-05-08T08:00:04.386Z,943.90
2023-05-08T08:05:03.234Z,943.94
2023-05-08T08:10:04.432Z,943.82
2023-05-08T08:15:03.146Z,943.82
2023-05-08T08:20:04.275Z,943.78
2023-05-08T08:25:03.219Z,943.82
2023-05-08T08:30:15.478Z,943.72
2023-05-08T08:35:03.350Z,943.68
2023-05-08T08:40:04.422Z,943.74
2023-05-08T08:45:03.298Z,943.88
2023-05-08T08:50:05.350Z,943.92
2023-05-08T08:55:03.275Z,943.90
2023-05-08T09:00:04.306Z,943.90
2023-05-08T09:05:03.289Z,943.82
2023-05-08T09:10:04.213Z,943.90
2023-05-08T09:15:03.211Z,943.92
2023-05-08T09:20:04.032Z,943.90
2023-05-08T09:25:03.300Z,943.88
2023-05-08T09:30:04.619Z,944.06
2023-05-08T09:35:03.290Z,944.17
2023-05-08T09:40:04.406Z,944.33
2023-05-08T09:45:03.409Z,944.47
2023-05-08T09:50:04.540Z,944.51
2023-05-08T09:55:03.335Z,944.65
2023-05-08T10:00:04.330Z,944.72
2023-05-08T10:05:03.305Z,944.74
2023-05-08T10:10:04.400Z,944.68
2023-05-08T10:15:03.088Z,944.76
2023-05-08T10:20:04.262Z,944.76
2023-05-08T10:25:03.568Z,944.86
2023-05-08T10:30:04.511Z,944.96
2023-05-08T10:35:03.292Z,945.02
2023-05-08T10:40:09.442Z,945.04
2023-05-08T10:45:03.383Z,945.06
2023-05-08T10:50:04.252Z,945.12
2023-05-08T10:55:03.202Z,945.22
2023-05-08T11:00:04.380Z,945.37
2023-05-08T11:05:03.505Z,945.37
2023-05-08T11:10:04.561Z,945.41
2023-05-08T11:15:03.324Z,945.39
2023-05-08T11:20:04.276Z,945.39
2023-05-08T11:25:03.196Z,945.53
2023-05-08T11:30:04.385Z,945.61
2023-05-08T11:35:03.353Z,945.74
2023-05-08T11:40:04.397Z,945.80
2023-05-08T11:45:03.307Z,945.78
2023-05-08T11:50:04.301Z,945.70
2023-05-08T11:55:03.217Z,945.69
2023-05-08T12:00:04.365Z,945.82
2023-05-08T12:05:03.265Z,945.90
2023-05-08T12:10:04.445Z,945.92
2023-05-08T12:15:03.177Z,945.96
2023-05-08T12:20:04.464Z,946.02
2023-05-08T12:25:03.284Z,946.04
2023-05-08T12:30:04.433Z,946.20
2023-05-08T12:35:03.306Z,946.23
2023-05-08T12:40:04.413Z,946.27
2023-05-08T12:45:03.315Z,946.31
2023-05-08T12:50:04.355Z,946.27
2023-05-08T12:55:03.400Z,946.27
2023-05-08T13:00:04.936Z,946.27
2023-05-08T13:05:03.425Z,946.31
2023-05-08T13:10:04.562Z,946.27
2023-05-08T13:15:03.366Z,946.25
2023-05-08T13:20:06.100Z,946.22
2023-05-08T13:25:03.172Z,946.29
2023-05-08T13:30:04.338Z,946.27
2023-05-08T13:35:03.235Z,946.43
2023-05-08T13:40:04.525Z,946.39
2023-05-08T13:45:03.487Z,946.33
2023-05-08T13:50:04.118Z,946.35
2023-05-08T13:55:03.168Z,946.39
2023-05-08T14:00:04.322Z,946.41
2023-05-08T14:05:03.310Z,946.31
2023-05-08T14:10:04.501Z,946.31
2023-05-08T14:15:04.346Z,946.31
2023-05-08T14:20:05.985Z,946.31
2023-05-08T14:25:03.147Z,946.29
2023-05-08T14:30:04.106Z,946.25
2023-05-08T14:35:03.266Z,946.06
2023-05-08T14:40:04.552Z,945.96
2023-05-08T14:45:03.358Z,945.86
2023-05-08T14:50:04.917Z,945.82
2023-05-08T14:55:04.463Z,945.86
2023-05-08T15:00:04.495Z,945.96
2023-05-08T15:05:08.247Z,945.92
2023-05-08T15:10:05.389Z,945.74
2023-05-08T15:15:04.598Z,945.78
2023-05-08T15:20:04.640Z,945.78
2023-05-08T15:25:03.420Z,945.74
2023-05-08T15:30:04.432Z,945.86
2023-05-08T15:35:03.347Z,945.84
2023-05-08T15:40:04.377Z,945.78
2023-05-08T15:45:03.313Z,945.65
2023-05-08T15:50:04.444Z,945.69
2023-05-08T15:55:03.183Z,945.55
2023-05-08T16:00:04.563Z,945.63
2023-05-08T16:05:03.287Z,945.57
2023-05-08T16:10:05.405Z,945.63
2023-05-08T16:15:03.332Z,945.59
2023-05-08T16:20:09.536Z,945.61
2023-05-08T16:25:03.462Z,945.51
2023-05-08T16:30:04.256Z,945.43
2023-05-08T16:35:03.353Z,945.47
2023-05-08T16:40:04.359Z,945.45
2023-05-08T16:45:03.343Z,945.43
2023-05-08T16:50:04.578Z,945.39
2023-05-08T16:55:03.239Z,945.45
2023-05-08T17:00:05.389Z,945.41
2023-05-08T17:05:03.250Z,945.22
2023-05-08T17:10:04.374Z,945.18
2023-05-08T17:15:03.262Z,945.14
2023-05-08T17:20:04.290Z,945.08
2023-05-08T17:25:03.180Z,945.14
2023-05-08T17:30:04.277Z,945.20
2023-05-08T17:35:04.278Z,945.22
2023-05-08T17:40:04.362Z,945.06
2023-05-08T17:45:03.513Z,945.06
2023-05-08T17:50:04.533Z,945.00
2023-05-08T17:55:03.372Z,944.94
2023-05-08T18:00:04.309Z,944.92
2023-05-08T18:05:03.275Z,944.76
2023-05-08T18:10:05.487Z,944.76
2023-05-08T18:15:03.418Z,944.74
2023-05-08T18:20:04.311Z,944.72
2023-05-08T18:25:03.222Z,944.72
2023-05-08T18:30:04.353Z,944.70
2023-05-08T18:35:03.355Z,944.70
2023-05-08T18:40:04.381Z,944.76
2023-05-08T18:45:03.441Z,944.90
2023-05-08T18:50:04.473Z,945.02
2023-05-08T18:55:03.162Z,945.00
2023-05-08T19:00:04.315Z,944.96
2023-05-08T19:05:03.272Z,944.96
2023-05-08T19:10:04.397Z,944.86
2023-05-08T19:15:03.303Z,944.94
2023-05-08T19:20:04.556Z,944.86
2023-05-08T19:25:03.394Z,944.82
2023-05-08T19:30:04.620Z,944.82
2023-05-08T19:35:03.376Z,944.84
2023-05-08T19:40:04.509Z,944.78
2023-05-08T19:45:03.307Z,944.86
2023-05-08T19:50:04.431Z,944.86
2023-05-08T19:55:03.185Z,944.82
2023-05-08T20:00:04.533Z,944.80
2023-05-08T20:05:21.512Z,944.68
2023-05-08T20:10:04.480Z,944.68
2023-05-08T20:15:03.358Z,944.55
2023-05-08T20:20:09.496Z,944.57
2023-05-08T20:25:04.794Z,944.72
2023-05-08T20:30:04.590Z,944.78
2023-05-08T20:35:03.235Z,944.84
2023-05-08T20:40:04.320Z,945.06
2023-05-08T20:45:03.291Z,945.10
2023-05-08T20:50:04.512Z,945.12
2023-05-08T20:55:03.171Z,945.16
2023-05-08T21:00:04.352Z,945.16
2023-05-08T21:05:03.202Z,945.16
2023-05-08T21:10:04.398Z,945.10
2023-05-08T21:15:03.340Z,945.06
2023-05-08T21:20:04.464Z,945.06
2023-05-08T21:25:03.131Z,944.98
2023-05-08T21:30:04.331Z,944.98
2023-05-08T21:35:03.416Z,944.98
2023-05-08T21:40:04.546Z,944.96
2023-05-08T21:45:03.339Z,944.92
2023-05-08T21:50:06.030Z,944.94
2023-05-08T21:55:03.379Z,944.96
2023-05-08T22:00:04.505Z,944.92
2023-05-08T22:05:03.249Z,945.00
2023-05-08T22:10:04.838Z,945.02
2023-05-08T22:15:03.637Z,945.16
2023-05-08T22:20:05.642Z,945.16
2023-05-08T22:25:03.446Z,945.12
2023-05-08T22:30:04.626Z,945.18
2023-05-08T22:35:03.339Z,945.22
2023-05-08T22:40:09.704Z,945.18
2023-05-08T22:45:03.354Z,945.31
2023-05-08T22:50:04.605Z,945.35
2023-05-08T22:55:03.124Z,945.43
2023-05-08T23:00:04.390Z,945.67
2023-05-08T23:05:03.309Z,945.74
2023-05-08T23:10:04.473Z,945.76
2023-05-08T23:15:03.291Z,945.70
2023-05-08T23:20:05.572Z,945.70
2023-05-08T23:25:03.334Z,945.76
2023-05-08T23:30:04.349Z,945.82
2023-05-08T23:35:03.286Z,945.76
2023-05-08T23:40:04.464Z,945.80
2023-05-08T23:45:03.247Z,945.82
2023-05-08T23:50:06.172Z,945.86
2023-05-08T23:55:03.456Z,945.90
